sensor_id;sensor_type;location;lat;lon;timestamp;pressure;altitude;pressure_sealevel;temperature;humidity
13013;BME280;22580;57.670;12.006;2023-02-13T00:00:38;102789.84;;;13.66;100.00
13013;BME280;22580;57.670;12.006;2023-02-13T00:03:05;102698.78;;;12.72;100.00
13013;BME280;22580;57.670;12.006;2023-02-13T00:05:33;102798.16;;;12.90;100.00
13013;BME280;22580;57.670;12.006;2023-02-13T00:08:00;102769.81;;;13.01;100.00
13013;BME280;22580;57.670;12.006;2023-02-13T00:10:28;102692.31;;;12.76;100.00
13013;BME280;22580;57.670;12.006;2023-02-13T00:12:55;102797.19;;;13.45;100.00
13013;BME280;22580;57.670;12.006;2023-02-13T00:15:22;102798.06;;;13.63;100.00
13013;BME280;22580;57.670;12.006;2023-02-13T00:17:49;102702.03;;;12.79;100.00
13013;BME280;22580;57.670;12.006;2023-02-13T00:20:16;102614.34;;;12.07;100.00
13013;BME280;22580;57.670;12.006;2023-02-13T00:22:46;102794.66;;;13.60;100.00
13013;BME280;22580;57.670;12.006;2023-02-13T00:25:13;102794.19;;;13.52;100.00
13013;BME280;22580;57.670;12.006;2023-02-13T00:27:40;102773.03;;;12.91;100.00
13013;BME280;22580;57.670;12.006;2023-02-13T00:30:08;102801.81;;;13.25;100.00
13013;BME280;22580;57.670;12.006;2023-02-13T00:32:35;102798.59;;;13.35;100.00
13013;BME280;22580;57.670;12.006;2023-02-13T00:35:02;102586.16;;;11.99;100.00
13013;BME280;22580;57.670;12.006;2023-02-13T00:37:29;102793.16;;;12.82;100.00
13013;BME280;22580;57.670;12.006;2023-02-13T00:39:57;102793.97;;;13.01;100.00
13013;BME280;22580;57.670;12.006;2023-02-13T00:42:25;102795.88;;;12.99;100.00
13013;BME280;22580;57.670;12.006;2023-02-13T00:44:52;102790.91;;;13.28;100.00
13013;BME280;22580;57.670;12.006;2023-02-13T00:47:19;102798.81;;;13.31;100.00
13013;BME280;22580;57.670;12.006;2023-02-13T00:49:47;102796.59;;;13.03;100.00
13013;BME280;22580;57.670;12.006;2023-02-13T00:52:13;102693.44;;;12.35;100.00
13013;BME280;22580;57.670;12.006;2023-02-13T00:54:41;102668.00;;;12.43;100.00
13013;BME280;22580;57.670;12.006;2023-02-13T00:57:13;102662.22;;;12.34;100.00
13013;BME280;22580;57.670;12.006;2023-02-13T00:59:40;102743.53;;;12.72;100.00
13013;BME280;22580;57.670;12.006;2023-02-13T01:02:07;102748.88;;;12.91;100.00
13013;BME280;22580;57.670;12.006;2023-02-13T01:04:36;102755.06;;;12.74;100.00
13013;BME280;22580;57.670;12.006;2023-02-13T01:07:03;102693.28;;;12.57;100.00
13013;BME280;22580;57.670;12.006;2023-02-13T01:09:32;102738.78;;;12.96;100.00
13013;BME280;22580;57.670;12.006;2023-02-13T01:11:59;102759.31;;;12.97;100.00
13013;BME280;22580;57.670;12.006;2023-02-13T01:14:27;102682.59;;;12.74;100.00
13013;BME280;22580;57.670;12.006;2023-02-13T01:16:54;102784.50;;;13.30;100.00
13013;BME280;22580;57.670;12.006;2023-02-13T01:19:21;102793.53;;;13.10;100.00
13013;BME280;22580;57.670;12.006;2023-02-13T01:21:48;102660.31;;;12.36;100.00
13013;BME280;22580;57.670;12.006;2023-02-13T01:24:15;102743.97;;;12.82;100.00
13013;BME280;22580;57.670;12.006;2023-02-13T01:26:43;102767.97;;;13.21;100.00
13013;BME280;22580;57.670;12.006;2023-02-13T01:29:11;102784.44;;;12.77;100.00
13013;BME280;22580;57.670;12.006;2023-02-13T01:31:40;102770.16;;;12.76;100.00
13013;BME280;22580;57.670;12.006;2023-02-13T01:34:07;102748.44;;;13.00;100.00
13013;BME280;22580;57.670;12.006;2023-02-13T01:36:35;102620.41;;;12.66;100.00
13013;BME280;22580;57.670;12.006;2023-02-13T01:39:02;102734.44;;;13.10;100.00
13013;BME280;22580;57.670;12.006;2023-02-13T01:41:29;102778.59;;;13.05;100.00
13013;BME280;22580;57.670;12.006;2023-02-13T01:43:58;102759.72;;;13.42;100.00
13013;BME280;22580;57.670;12.006;2023-02-13T01:46:28;102744.00;;;13.52;100.00
13013;BME280;22580;57.670;12.006;2023-02-13T01:49:04;102704.63;;;13.34;100.00
13013;BME280;22580;57.670;12.006;2023-02-13T01:51:34;102772.44;;;13.56;100.00
13013;BME280;22580;57.670;12.006;2023-02-13T01:54:05;102765.66;;;13.66;100.00
13013;BME280;22580;57.670;12.006;2023-02-13T01:56:36;102759.34;;;13.14;100.00
13013;BME280;22580;57.670;12.006;2023-02-13T01:59:09;102653.22;;;12.35;100.00
13013;BME280;22580;57.670;12.006;2023-02-13T02:01:39;102752.81;;;13.20;100.00
13013;BME280;22580;57.670;12.006;2023-02-13T02:04:10;102728.66;;;13.01;100.00
13013;BME280;22580;57.670;12.006;2023-02-13T02:06:41;102762.41;;;13.42;100.00
13013;BME280;22580;57.670;12.006;2023-02-13T02:09:12;102756.78;;;13.30;100.00
13013;BME280;22580;57.670;12.006;2023-02-13T02:11:45;102698.09;;;13.22;100.00
13013;BME280;22580;57.670;12.006;2023-02-13T02:14:14;102680.31;;;13.20;100.00
13013;BME280;22580;57.670;12.006;2023-02-13T02:16:41;102765.00;;;13.44;100.00
13013;BME280;22580;57.670;12.006;2023-02-13T02:19:14;102762.00;;;12.97;100.00
13013;BME280;22580;57.670;12.006;2023-02-13T02:22:04;102755.66;;;13.17;100.00
13013;BME280;22580;57.670;12.006;2023-02-13T02:28:14;102775.59;;;13.30;100.00
13013;BME280;22580;57.670;12.006;2023-02-13T02:34:03;102751.66;;;13.42;100.00
13013;BME280;22580;57.670;12.006;2023-02-13T02:36:40;102768.50;;;13.46;100.00
13013;BME280;22580;57.670;12.006;2023-02-13T02:39:20;102763.56;;;13.20;100.00
13013;BME280;22580;57.670;12.006;2023-02-13T02:41:58;102664.22;;;13.01;100.00
13013;BME280;22580;57.670;12.006;2023-02-13T02:44:32;102753.56;;;12.68;100.00
13013;BME280;22580;57.670;12.006;2023-02-13T02:47:08;102752.06;;;12.99;100.00
13013;BME280;22580;57.670;12.006;2023-02-13T02:50:11;102766.59;;;12.95;100.00
13013;BME280;22580;57.670;12.006;2023-02-13T02:52:45;102753.38;;;13.07;100.00
13013;BME280;22580;57.670;12.006;2023-02-13T02:55:30;102740.72;;;12.75;100.00
13013;BME280;22580;57.670;12.006;2023-02-13T02:58:03;102640.63;;;12.73;100.00
13013;BME280;22580;57.670;12.006;2023-02-13T03:00:52;102747.72;;;13.13;100.00
13013;BME280;22580;57.670;12.006;2023-02-13T03:03:39;102765.88;;;13.27;100.00
13013;BME280;22580;57.670;12.006;2023-02-13T03:06:28;102664.25;;;12.29;100.00
13013;BME280;22580;57.670;12.006;2023-02-13T03:09:00;102687.44;;;12.48;100.00
13013;BME280;22580;57.670;12.006;2023-02-13T03:11:48;102724.97;;;12.30;100.00
13013;BME280;22580;57.670;12.006;2023-02-13T03:14:36;102763.41;;;12.87;100.00
13013;BME280;22580;57.670;12.006;2023-02-13T03:17:05;102757.97;;;12.88;100.00
13013;BME280;22580;57.670;12.006;2023-02-13T03:19:59;102756.88;;;13.09;100.00
13013;BME280;22580;57.670;12.006;2023-02-13T03:22:57;102774.63;;;13.31;100.00
13013;BME280;22580;57.670;12.006;2023-02-13T03:25:29;102646.91;;;12.17;100.00
13013;BME280;22580;57.670;12.006;2023-02-13T03:28:07;102657.06;;;12.48;100.00
13013;BME280;22580;57.670;12.006;2023-02-13T03:30:58;102760.66;;;13.24;100.00
13013;BME280;22580;57.670;12.006;2023-02-13T03:33:43;102748.09;;;12.89;100.00
13013;BME280;22580;57.670;12.006;2023-02-13T03:36:21;102711.63;;;12.66;100.00
13013;BME280;22580;57.670;12.006;2023-02-13T03:39:13;102684.72;;;12.67;100.00
13013;BME280;22580;57.670;12.006;2023-02-13T03:41:47;102727.63;;;13.22;100.00
13013;BME280;22580;57.670;12.006;2023-02-13T03:44:24;102743.59;;;12.89;100.00
13013;BME280;22580;57.670;12.006;2023-02-13T03:46:57;102730.00;;;13.28;100.00
13013;BME280;22580;57.670;12.006;2023-02-13T03:49:29;102731.81;;;13.28;100.00
13013;BME280;22580;57.670;12.006;2023-02-13T03:52:18;102735.25;;;12.95;100.00
13013;BME280;22580;57.670;12.006;2023-02-13T03:54:55;102707.25;;;12.82;100.00
13013;BME280;22580;57.670;12.006;2023-02-13T03:57:43;102731.59;;;12.96;100.00
13013;BME280;22580;57.670;12.006;2023-02-13T04:00:33;102733.22;;;12.82;100.00
13013;BME280;22580;57.670;12.006;2023-02-13T04:03:07;102748.50;;;12.98;100.00
13013;BME280;22580;57.670;12.006;2023-02-13T04:05:40;102676.75;;;12.66;100.00
13013;BME280;22580;57.670;12.006;2023-02-13T04:08:08;102751.44;;;13.11;100.00
13013;BME280;22580;57.670;12.006;2023-02-13T04:10:43;102709.28;;;12.77;100.00
13013;BME280;22580;57.670;12.006;2023-02-13T04:13:16;102744.34;;;12.74;100.00
13013;BME280;22580;57.670;12.006;2023-02-13T04:15:49;102719.50;;;12.88;100.00
13013;BME280;22580;57.670;12.006;2023-02-13T04:18:20;102714.69;;;12.39;100.00
13013;BME280;22580;57.670;12.006;2023-02-13T04:20:48;102740.19;;;12.86;100.00
13013;BME280;22580;57.670;12.006;2023-02-13T04:23:15;102746.13;;;12.92;100.00
13013;BME280;22580;57.670;12.006;2023-02-13T04:25:47;102637.41;;;12.29;100.00
13013;BME280;22580;57.670;12.006;2023-02-13T04:28:14;102763.66;;;12.99;100.00
13013;BME280;22580;57.670;12.006;2023-02-13T04:30:42;102643.50;;;12.32;100.00
13013;BME280;22580;57.670;12.006;2023-02-13T04:33:09;102689.63;;;12.76;100.00
13013;BME280;22580;57.670;12.006;2023-02-13T04:35:36;102655.00;;;12.53;100.00
13013;BME280;22580;57.670;12.006;2023-02-13T04:38:04;102730.25;;;12.88;100.00
13013;BME280;22580;57.670;12.006;2023-02-13T04:40:31;102748.03;;;13.07;100.00
13013;BME280;22580;57.670;12.006;2023-02-13T04:43:00;102765.94;;;12.90;100.00
13013;BME280;22580;57.670;12.006;2023-02-13T04:45:27;102670.13;;;12.73;100.00
13013;BME280;22580;57.670;12.006;2023-02-13T04:47:55;102757.75;;;13.46;99.55
13013;BME280;22580;57.670;12.006;2023-02-13T04:50:27;102770.94;;;13.51;99.17
13013;BME280;22580;57.670;12.006;2023-02-13T04:52:55;102750.41;;;13.13;99.35
13013;BME280;22580;57.670;12.006;2023-02-13T04:55:23;102767.84;;;13.24;99.55
13013;BME280;22580;57.670;12.006;2023-02-13T04:57:51;102782.53;;;12.98;100.00
13013;BME280;22580;57.670;12.006;2023-02-13T05:00:27;102603.13;;;11.99;100.00
13013;BME280;22580;57.670;12.006;2023-02-13T05:02:59;102753.16;;;12.95;100.00
13013;BME280;22580;57.670;12.006;2023-02-13T05:05:26;102761.91;;;13.17;100.00
13013;BME280;22580;57.670;12.006;2023-02-13T05:07:54;102630.25;;;12.29;100.00
13013;BME280;22580;57.670;12.006;2023-02-13T05:10:21;102689.28;;;12.65;100.00
13013;BME280;22580;57.670;12.006;2023-02-13T05:12:48;102561.97;;;12.00;99.62
13013;BME280;22580;57.670;12.006;2023-02-13T05:15:15;102712.88;;;12.95;100.00
13013;BME280;22580;57.670;12.006;2023-02-13T05:17:44;102764.13;;;13.07;99.92
13013;BME280;22580;57.670;12.006;2023-02-13T05:20:12;102685.16;;;12.58;100.00
13013;BME280;22580;57.670;12.006;2023-02-13T05:22:43;102755.78;;;12.77;100.00
13013;BME280;22580;57.670;12.006;2023-02-13T05:25:30;102723.72;;;12.93;100.00
13013;BME280;22580;57.670;12.006;2023-02-13T05:27:57;102722.66;;;12.60;100.00
13013;BME280;22580;57.670;12.006;2023-02-13T05:30:24;102679.78;;;12.77;100.00
13013;BME280;22580;57.670;12.006;2023-02-13T05:32:51;102757.59;;;12.77;100.00
13013;BME280;22580;57.670;12.006;2023-02-13T05:35:19;102729.63;;;12.64;100.00
13013;BME280;22580;57.670;12.006;2023-02-13T05:37:46;102733.53;;;12.75;100.00
13013;BME280;22580;57.670;12.006;2023-02-13T05:40:14;102653.81;;;12.04;100.00
13013;BME280;22580;57.670;12.006;2023-02-13T05:42:41;102770.59;;;12.86;100.00
13013;BME280;22580;57.670;12.006;2023-02-13T05:45:09;102775.34;;;12.98;100.00
13013;BME280;22580;57.670;12.006;2023-02-13T05:47:36;102784.00;;;12.86;100.00
13013;BME280;22580;57.670;12.006;2023-02-13T05:50:06;102608.41;;;11.82;100.00
13013;BME280;22580;57.670;12.006;2023-02-13T05:52:33;102790.38;;;12.46;100.00
13013;BME280;22580;57.670;12.006;2023-02-13T05:55:00;102766.28;;;12.26;100.00
13013;BME280;22580;57.670;12.006;2023-02-13T05:57:28;102793.00;;;12.47;100.00
13013;BME280;22580;57.670;12.006;2023-02-13T05:59:55;102663.25;;;11.94;100.00
13013;BME280;22580;57.670;12.006;2023-02-13T06:02:22;102791.63;;;12.76;100.00
13013;BME280;22580;57.670;12.006;2023-02-13T06:04:49;102787.34;;;12.54;100.00
13013;BME280;22580;57.670;12.006;2023-02-13T06:07:18;102693.59;;;12.32;100.00
13013;BME280;22580;57.670;12.006;2023-02-13T06:09:45;102793.50;;;12.74;100.00
13013;BME280;22580;57.670;12.006;2023-02-13T06:12:12;102788.66;;;12.64;100.00
13013;BME280;22580;57.670;12.006;2023-02-13T06:14:39;102600.59;;;11.57;100.00
13013;BME280;22580;57.670;12.006;2023-02-13T06:17:06;102690.53;;;12.21;100.00
13013;BME280;22580;57.670;12.006;2023-02-13T06:19:33;102674.81;;;11.94;100.00
13013;BME280;22580;57.670;12.006;2023-02-13T06:22:00;102788.00;;;12.77;100.00
13013;BME280;22580;57.670;12.006;2023-02-13T06:24:28;102727.88;;;12.25;100.00
13013;BME280;22580;57.670;12.006;2023-02-13T06:26:55;102806.63;;;12.80;100.00
13013;BME280;22580;57.670;12.006;2023-02-13T06:29:23;102804.25;;;12.74;100.00
13013;BME280;22580;57.670;12.006;2023-02-13T06:31:49;102814.47;;;12.85;100.00
13013;BME280;22580;57.670;12.006;2023-02-13T06:34:18;102698.81;;;11.97;100.00
13013;BME280;22580;57.670;12.006;2023-02-13T06:36:45;102821.00;;;12.61;100.00
13013;BME280;22580;57.670;12.006;2023-02-13T06:39:12;102703.69;;;12.08;100.00
13013;BME280;22580;57.670;12.006;2023-02-13T06:41:40;102808.28;;;12.45;100.00
13013;BME280;22580;57.670;12.006;2023-02-13T06:44:08;102823.38;;;12.67;100.00
13013;BME280;22580;57.670;12.006;2023-02-13T06:46:35;102792.34;;;12.42;100.00
13013;BME280;22580;57.670;12.006;2023-02-13T06:49:03;102775.16;;;12.46;100.00
13013;BME280;22580;57.670;12.006;2023-02-13T06:51:29;102795.75;;;12.65;100.00
13013;BME280;22580;57.670;12.006;2023-02-13T06:53:56;102696.19;;;12.14;100.00
13013;BME280;22580;57.670;12.006;2023-02-13T06:56:24;102715.47;;;12.41;99.42
13013;BME280;22580;57.670;12.006;2023-02-13T06:58:53;102809.31;;;12.99;99.89
13013;BME280;22580;57.670;12.006;2023-02-13T07:01:20;102610.88;;;11.66;100.00
13013;BME280;22580;57.670;12.006;2023-02-13T07:03:47;102758.16;;;12.27;100.00
13013;BME280;22580;57.670;12.006;2023-02-13T07:06:16;102737.88;;;12.22;100.00
13013;BME280;22580;57.670;12.006;2023-02-13T07:08:43;102675.47;;;12.18;100.00
13013;BME280;22580;57.670;12.006;2023-02-13T07:11:16;102717.88;;;12.66;100.00
13013;BME280;22580;57.670;12.006;2023-02-13T07:13:43;102792.66;;;13.10;100.00
13013;BME280;22580;57.670;12.006;2023-02-13T07:16:12;102796.59;;;13.03;100.00
13013;BME280;22580;57.670;12.006;2023-02-13T07:18:42;102810.44;;;13.12;100.00
13013;BME280;22580;57.670;12.006;2023-02-13T07:21:10;102820.75;;;13.03;100.00
13013;BME280;22580;57.670;12.006;2023-02-13T07:23:37;102819.72;;;13.05;100.00
13013;BME280;22580;57.670;12.006;2023-02-13T07:26:04;102756.72;;;12.76;100.00
13013;BME280;22580;57.670;12.006;2023-02-13T07:28:32;102819.72;;;13.24;100.00
13013;BME280;22580;57.670;12.006;2023-02-13T07:31:03;102698.59;;;12.58;100.00
13013;BME280;22580;57.670;12.006;2023-02-13T07:33:31;102696.56;;;12.44;100.00
13013;BME280;22580;57.670;12.006;2023-02-13T07:35:58;102687.44;;;12.48;100.00
13013;BME280;22580;57.670;12.006;2023-02-13T07:38:30;102701.84;;;12.65;100.00
13013;BME280;22580;57.670;12.006;2023-02-13T07:40:57;102776.69;;;13.07;100.00
13013;BME280;22580;57.670;12.006;2023-02-13T07:43:27;102708.16;;;12.26;100.00
13013;BME280;22580;57.670;12.006;2023-02-13T07:46:01;102781.66;;;12.97;100.00
13013;BME280;22580;57.670;12.006;2023-02-13T07:48:28;102792.31;;;13.18;100.00
13013;BME280;22580;57.670;12.006;2023-02-13T07:51:00;102716.69;;;12.72;100.00
13013;BME280;22580;57.670;12.006;2023-02-13T07:53:28;102794.88;;;12.83;100.00
13013;BME280;22580;57.670;12.006;2023-02-13T07:55:55;102694.38;;;12.53;100.00
13013;BME280;22580;57.670;12.006;2023-02-13T07:58:22;102797.31;;;13.25;100.00
13013;BME280;22580;57.670;12.006;2023-02-13T08:00:49;102802.38;;;13.31;100.00
13013;BME280;22580;57.670;12.006;2023-02-13T08:03:16;102808.75;;;13.29;100.00
13013;BME280;22580;57.670;12.006;2023-02-13T08:05:46;102720.19;;;12.74;100.00
13013;BME280;22580;57.670;12.006;2023-02-13T08:08:15;102829.06;;;13.16;100.00
13013;BME280;22580;57.670;12.006;2023-02-13T08:10:42;102832.03;;;13.47;100.00
13013;BME280;22580;57.670;12.006;2023-02-13T08:13:29;102845.66;;;13.25;100.00
13013;BME280;22580;57.670;12.006;2023-02-13T08:15:56;102850.84;;;13.47;100.00
13013;BME280;22580;57.670;12.006;2023-02-13T08:18:23;102855.53;;;14.13;100.00
13013;BME280;22580;57.670;12.006;2023-02-13T08:20:51;102845.47;;;14.16;100.00
13013;BME280;22580;57.670;12.006;2023-02-13T08:23:21;102864.69;;;14.43;100.00
13013;BME280;22580;57.670;12.006;2023-02-13T08:25:48;102784.00;;;14.08;99.98
13013;BME280;22580;57.670;12.006;2023-02-13T08:28:16;102869.88;;;14.63;99.27
13013;BME280;22580;57.670;12.006;2023-02-13T08:30:43;102836.81;;;14.44;98.23
13013;BME280;22580;57.670;12.006;2023-02-13T08:33:10;102791.22;;;14.08;97.94
13013;BME280;22580;57.670;12.006;2023-02-13T08:35:38;102694.53;;;13.56;97.24
13013;BME280;22580;57.670;12.006;2023-02-13T08:38:08;102796.75;;;14.05;96.33
13013;BME280;22580;57.670;12.006;2023-02-13T08:40:36;102899.31;;;14.66;96.17
13013;BME280;22580;57.670;12.006;2023-02-13T08:43:05;102854.13;;;14.38;97.66
13013;BME280;22580;57.670;12.006;2023-02-13T08:45:39;102858.66;;;14.38;96.94
13013;BME280;22580;57.670;12.006;2023-02-13T08:48:07;102833.09;;;14.29;96.16
13013;BME280;22580;57.670;12.006;2023-02-13T08:50:34;102864.47;;;13.96;96.63
13013;BME280;22580;57.670;12.006;2023-02-13T08:53:01;102917.53;;;13.75;98.41
13013;BME280;22580;57.670;12.006;2023-02-13T08:55:31;102790.25;;;13.04;98.44
13013;BME280;22580;57.670;12.006;2023-02-13T08:58:34;102788.16;;;13.29;98.21
13013;BME280;22580;57.670;12.006;2023-02-13T09:01:15;102806.63;;;12.99;99.81
13013;BME280;22580;57.670;12.006;2023-02-13T09:03:43;102819.09;;;13.55;98.42
13013;BME280;22580;57.670;12.006;2023-02-13T09:06:19;102704.84;;;13.12;97.51
13013;BME280;22580;57.670;12.006;2023-02-13T09:08:51;102697.31;;;13.01;97.32
13013;BME280;22580;57.670;12.006;2023-02-13T09:11:22;102753.75;;;13.19;97.33
13013;BME280;22580;57.670;12.006;2023-02-13T09:13:54;102714.13;;;13.05;97.04
13013;BME280;22580;57.670;12.006;2023-02-13T09:16:24;102838.38;;;13.81;97.22
13013;BME280;22580;57.670;12.006;2023-02-13T09:18:51;102920.94;;;14.30;97.41
13013;BME280;22580;57.670;12.006;2023-02-13T09:21:20;102883.13;;;14.33;96.71
13013;BME280;22580;57.670;12.006;2023-02-13T09:23:48;102898.63;;;14.79;95.47
13013;BME280;22580;57.670;12.006;2023-02-13T09:26:19;102907.19;;;14.54;96.06
13013;BME280;22580;57.670;12.006;2023-02-13T09:28:46;102832.75;;;14.02;96.14
13013;BME280;22580;57.670;12.006;2023-02-13T09:31:16;102889.59;;;14.64;95.95
13013;BME280;22580;57.670;12.006;2023-02-13T09:33:48;102895.53;;;15.02;95.14
13013;BME280;22580;57.670;12.006;2023-02-13T09:36:16;102787.78;;;14.22;94.99
13013;BME280;22580;57.670;12.006;2023-02-13T09:38:44;102786.59;;;14.27;94.89
13013;BME280;22580;57.670;12.006;2023-02-13T09:41:15;102856.06;;;14.19;95.57
13013;BME280;22580;57.670;12.006;2023-02-13T09:43:48;102823.59;;;14.39;94.94
13013;BME280;22580;57.670;12.006;2023-02-13T09:46:20;102895.69;;;14.83;94.91
13013;BME280;22580;57.670;12.006;2023-02-13T09:48:52;102861.88;;;14.77;94.58
13013;BME280;22580;57.670;12.006;2023-02-13T09:51:21;102822.34;;;14.29;94.79
13013;BME280;22580;57.670;12.006;2023-02-13T09:53:59;102763.44;;;13.57;95.64
13013;BME280;22580;57.670;12.006;2023-02-13T09:56:36;102688.16;;;13.74;94.46
13013;BME280;22580;57.670;12.006;2023-02-13T09:59:28;102886.75;;;14.15;95.67
13013;BME280;22580;57.670;12.006;2023-02-13T10:02:13;102898.69;;;14.61;95.10
13013;BME280;22580;57.670;12.006;2023-02-13T10:04:58;102717.59;;;13.43;94.45
13013;BME280;22580;57.670;12.006;2023-02-13T10:07:35;102688.72;;;13.12;95.19
13013;BME280;22580;57.670;12.006;2023-02-13T10:10:14;102691.38;;;13.31;95.19
13013;BME280;22580;57.670;12.006;2023-02-13T10:13:05;102847.63;;;13.75;95.60
13013;BME280;22580;57.670;12.006;2023-02-13T10:16:06;102770.00;;;13.86;94.63
13013;BME280;22580;57.670;12.006;2023-02-13T10:18:44;102782.88;;;13.62;94.40
13013;BME280;22580;57.670;12.006;2023-02-13T10:21:21;102819.72;;;14.45;93.20
13013;BME280;22580;57.670;12.006;2023-02-13T10:23:57;102826.81;;;14.63;92.29
13013;BME280;22580;57.670;12.006;2023-02-13T10:26:28;102923.97;;;14.74;92.72
13013;BME280;22580;57.670;12.006;2023-02-13T10:29:13;102733.03;;;13.90;92.13
13013;BME280;22580;57.670;12.006;2023-02-13T10:32:03;102893.88;;;14.33;92.95
13013;BME280;22580;57.670;12.006;2023-02-13T10:34:45;102805.50;;;14.43;92.21
13013;BME280;22580;57.670;12.006;2023-02-13T10:37:14;102809.06;;;14.43;92.46
13013;BME280;22580;57.670;12.006;2023-02-13T10:39:44;102916.84;;;15.06;91.81
13013;BME280;22580;57.670;12.006;2023-02-13T10:42:22;102845.47;;;14.82;90.82
13013;BME280;22580;57.670;12.006;2023-02-13T10:45:20;102931.72;;;15.29;90.96
13013;BME280;22580;57.670;12.006;2023-02-13T10:47:57;102935.13;;;15.33;90.66
13013;BME280;22580;57.670;12.006;2023-02-13T10:50:50;102706.84;;;13.26;91.86
13013;BME280;22580;57.670;12.006;2023-02-13T10:53:33;102750.00;;;13.74;91.87
13013;BME280;22580;57.670;12.006;2023-02-13T10:56:24;102932.53;;;14.98;91.88
13013;BME280;22580;57.670;12.006;2023-02-13T10:59:04;102734.09;;;14.03;91.31
13013;BME280;22580;57.670;12.006;2023-02-13T11:01:36;102898.78;;;15.24;90.59
13013;BME280;22580;57.670;12.006;2023-02-13T11:04:08;102806.34;;;14.43;90.58
13013;BME280;22580;57.670;12.006;2023-02-13T11:06:41;102834.94;;;14.77;90.29
13013;BME280;22580;57.670;12.006;2023-02-13T11:09:09;102784.06;;;14.24;89.71
13013;BME280;22580;57.670;12.006;2023-02-13T11:11:39;102840.50;;;14.74;90.55
13013;BME280;22580;57.670;12.006;2023-02-13T11:14:12;102944.25;;;15.46;90.51
13013;BME280;22580;57.670;12.006;2023-02-13T11:16:44;102941.28;;;15.82;89.54
13013;BME280;22580;57.670;12.006;2023-02-13T11:19:19;102943.38;;;15.61;89.14
13013;BME280;22580;57.670;12.006;2023-02-13T11:21:54;102944.00;;;16.12;88.71
13013;BME280;22580;57.670;12.006;2023-02-13T11:24:23;102935.34;;;15.91;86.99
13013;BME280;22580;57.670;12.006;2023-02-13T11:26:53;102857.03;;;15.47;87.33
13013;BME280;22580;57.670;12.006;2023-02-13T11:29:26;102901.97;;;15.62;86.89
13013;BME280;22580;57.670;12.006;2023-02-13T11:32:18;102924.59;;;16.35;86.70
13013;BME280;22580;57.670;12.006;2023-02-13T11:34:46;102791.25;;;15.20;85.53
13013;BME280;22580;57.670;12.006;2023-02-13T11:37:24;102913.28;;;15.69;86.07
13013;BME280;22580;57.670;12.006;2023-02-13T11:39:54;102736.91;;;14.82;85.74
13013;BME280;22580;57.670;12.006;2023-02-13T11:42:29;102757.53;;;15.28;85.89
13013;BME280;22580;57.670;12.006;2023-02-13T11:45:02;102760.41;;;15.25;84.68
13013;BME280;22580;57.670;12.006;2023-02-13T11:47:38;102847.56;;;15.86;84.93
13013;BME280;22580;57.670;12.006;2023-02-13T11:50:21;102747.13;;;15.06;85.61
13013;BME280;22580;57.670;12.006;2023-02-13T11:53:02;102865.88;;;15.95;85.24
13013;BME280;22580;57.670;12.006;2023-02-13T11:55:32;102803.41;;;16.45;84.38
13013;BME280;22580;57.670;12.006;2023-02-13T11:58:02;102716.38;;;15.85;84.30
13013;BME280;22580;57.670;12.006;2023-02-13T12:00:36;102897.44;;;17.10;83.39
13013;BME280;22580;57.670;12.006;2023-02-13T12:03:29;102809.94;;;16.55;82.80
13013;BME280;22580;57.670;12.006;2023-02-13T12:06:05;102793.13;;;16.93;84.07
13013;BME280;22580;57.670;12.006;2023-02-13T12:08:52;102784.94;;;17.21;83.52
13013;BME280;22580;57.670;12.006;2023-02-13T12:11:26;102724.91;;;16.48;78.87
13013;BME280;22580;57.670;12.006;2023-02-13T12:13:59;102857.59;;;17.53;80.78
13013;BME280;22580;57.670;12.006;2023-02-13T12:16:29;102799.63;;;17.17;79.26
13013;BME280;22580;57.670;12.006;2023-02-13T12:19:04;102794.38;;;17.01;78.18
13013;BME280;22580;57.670;12.006;2023-02-13T12:21:43;102795.75;;;16.94;79.92
13013;BME280;22580;57.670;12.006;2023-02-13T12:24:31;102787.94;;;16.61;79.40
13013;BME280;22580;57.670;12.006;2023-02-13T12:27:06;102795.44;;;16.99;80.55
13013;BME280;22580;57.670;12.006;2023-02-13T12:32:41;102821.72;;;15.82;82.39
13013;BME280;22580;57.670;12.006;2023-02-13T12:35:30;102836.00;;;16.85;81.59
13013;BME280;22580;57.670;12.006;2023-02-13T12:38:08;102849.47;;;16.99;81.04
13013;BME280;22580;57.670;12.006;2023-02-13T12:40:52;102935.72;;;17.30;80.25
13013;BME280;22580;57.670;12.006;2023-02-13T12:43:56;102868.06;;;17.18;78.99
13013;BME280;22580;57.670;12.006;2023-02-13T12:46:28;102741.09;;;16.48;78.43
13013;BME280;22580;57.670;12.006;2023-02-13T12:49:06;102936.13;;;17.51;79.16
13013;BME280;22580;57.670;12.006;2023-02-13T12:51:46;102931.19;;;17.31;78.85
13013;BME280;22580;57.670;12.006;2023-02-13T12:54:43;102887.28;;;16.28;80.95
13013;BME280;22580;57.670;12.006;2023-02-13T12:57:42;102759.78;;;15.80;81.09
13013;BME280;22580;57.670;12.006;2023-02-13T13:00:39;102912.00;;;16.93;78.55
13013;BME280;22580;57.670;12.006;2023-02-13T13:04:03;102872.97;;;17.25;79.17
13013;BME280;22580;57.670;12.006;2023-02-13T13:06:49;102823.31;;;16.99;77.00
13013;BME280;22580;57.670;12.006;2023-02-13T13:09:38;102767.28;;;15.75;78.19
13013;BME280;22580;57.670;12.006;2023-02-13T13:12:42;102739.78;;;15.98;78.14